createdAt,value
2018-01-11T00:00:22.557Z,0.00
2018-01-11T00:01:22.582Z,0.00
2018-01-11T00:02:22.609Z,0.00
2018-01-11T00:03:22.637Z,0.00
2018-01-11T00:04:22.664Z,0.00
2018-01-11T00:05:22.693Z,0.00
2018-01-11T00:06:22.720Z,0.00
2018-01-11T00:07:22.749Z,0.00
2018-01-11T00:08:22.775Z,0.00
2018-01-11T00:09:22.802Z,0.00
2018-01-11T00:10:22.830Z,0.00
2018-01-11T00:11:22.856Z,0.00
2018-01-11T00:12:22.885Z,0.00
2018-01-11T00:13:22.912Z,0.00
2018-01-11T00:14:22.940Z,0.00
2018-01-11T00:15:22.968Z,0.00
2018-01-11T00:16:22.994Z,0.00
2018-01-11T00:17:23.024Z,0.00
2018-01-11T00:18:23.051Z,0.00
2018-01-11T00:19:23.079Z,0.00
2018-01-11T00:20:23.105Z,0.00
2018-01-11T00:21:23.134Z,0.00
2018-01-11T00:22:23.161Z,0.00
2018-01-11T00:23:23.188Z,0.00
2018-01-11T00:24:23.217Z,0.00
2018-01-11T00:25:23.245Z,0.00
2018-01-11T00:26:23.270Z,0.00
2018-01-11T00:27:23.298Z,0.00
2018-01-11T00:28:23.327Z,0.00
2018-01-11T00:29:23.355Z,0.00
2018-01-11T00:30:23.382Z,0.00
2018-01-11T00:31:23.412Z,0.00
2018-01-11T00:32:23.438Z,0.00
2018-01-11T00:33:23.466Z,0.00
2018-01-11T00:34:23.493Z,0.00
2018-01-11T00:35:23.521Z,0.00
2018-01-11T00:36:23.548Z,0.00
2018-01-11T00:37:23.576Z,0.00
2018-01-11T00:38:23.603Z,0.00
2018-01-11T00:39:23.632Z,0.00
2018-01-11T00:40:23.660Z,0.00
2018-01-11T00:41:23.687Z,0.00
2018-01-11T00:42:23.714Z,0.00
2018-01-11T00:43:23.742Z,0.00
2018-01-11T00:44:23.770Z,0.00
2018-01-11T00:45:23.797Z,0.00
2018-01-11T00:46:23.829Z,0.00
2018-01-11T00:47:23.851Z,0.00
2018-01-11T00:48:23.881Z,0.00
2018-01-11T00:49:23.909Z,0.00
2018-01-11T00:50:23.936Z,0.00
2018-01-11T00:51:23.963Z,0.00
2018-01-11T00:52:23.992Z,0.00
2018-01-11T00:53:24.025Z,0.00
2018-01-11T00:54:24.047Z,0.00
2018-01-11T00:55:24.075Z,0.00
2018-01-11T00:56:24.102Z,0.00
2018-01-11T00:57:24.129Z,0.00
2018-01-11T00:58:24.158Z,0.00
2018-01-11T00:59:24.185Z,0.00
2018-01-11T01:00:24.218Z,0.00
2018-01-11T01:01:24.241Z,0.00
2018-01-11T01:02:24.268Z,0.00
2018-01-11T01:03:24.296Z,0.00
2018-01-11T01:04:24.324Z,0.00
2018-01-11T01:05:24.352Z,0.00
2018-01-11T01:06:24.379Z,0.00
2018-01-11T01:07:24.407Z,0.00
2018-01-11T01:08:24.435Z,0.00
2018-01-11T01:09:24.463Z,0.00
2018-01-11T01:10:24.490Z,0.00
2018-01-11T01:11:24.518Z,0.00
2018-01-11T01:12:24.546Z,0.00
2018-01-11T01:13:24.573Z,0.00
2018-01-11T01:14:24.600Z,0.00
2018-01-11T01:15:24.628Z,0.00
2018-01-11T01:16:24.655Z,0.00
2018-01-11T01:17:24.684Z,0.00
2018-01-11T01:18:24.710Z,0.00
2018-01-11T01:19:24.790Z,0.00
2018-01-11T01:20:24.766Z,0.00
2018-01-11T01:21:24.794Z,0.00
2018-01-11T01:22:24.821Z,0.00
2018-01-11T01:23:24.848Z,0.00
2018-01-11T01:24:24.877Z,0.00
2018-01-11T01:25:24.905Z,0.00
2018-01-11T01:26:24.931Z,0.00
2018-01-11T01:27:24.960Z,0.00
2018-01-11T01:28:25.051Z,0.00
2018-01-11T01:29:25.015Z,0.00
2018-01-11T01:30:25.042Z,0.00
2018-01-11T01:31:25.070Z,0.00
2018-01-11T01:32:25.098Z,0.00
2018-01-11T01:33:25.125Z,0.00
2018-01-11T01:34:25.152Z,0.00
2018-01-11T01:35:25.178Z,0.00
2018-01-11T01:36:25.207Z,0.00
2018-01-11T01:37:25.235Z,0.00
2018-01-11T01:38:25.262Z,0.00
2018-01-11T01:39:25.293Z,0.00
2018-01-11T01:40:25.315Z,0.00
2018-01-11T01:41:25.343Z,0.00
2018-01-11T01:42:25.370Z,0.00
2018-01-11T01:43:25.398Z,0.00
2018-01-11T01:44:25.426Z,0.00
2018-01-11T01:45:25.453Z,0.00
2018-01-11T01:46:25.505Z,0.00
2018-01-11T01:47:25.507Z,0.00
2018-01-11T01:48:25.535Z,0.00
2018-01-11T01:49:25.562Z,0.00
2018-01-11T01:50:25.588Z,0.00
2018-01-11T01:51:25.616Z,0.00
2018-01-11T01:52:25.644Z,0.00
2018-01-11T01:53:25.671Z,0.00
2018-01-11T01:54:25.699Z,0.00
2018-01-11T01:55:25.726Z,0.00
2018-01-11T01:56:25.754Z,0.00
2018-01-11T01:57:25.781Z,0.00
2018-01-11T01:58:25.808Z,0.00
2018-01-11T01:59:25.836Z,0.00
2018-01-11T02:00:25.864Z,0.00
2018-01-11T02:01:25.891Z,0.00
2018-01-11T02:02:25.917Z,0.00
2018-01-11T02:03:25.945Z,0.00
2018-01-11T02:04:25.975Z,0.00
2018-01-11T02:05:26.001Z,0.00
2018-01-11T02:06:26.026Z,0.00
2018-01-11T02:07:26.055Z,0.00
2018-01-11T02:08:26.083Z,0.00
2018-01-11T02:09:26.111Z,0.00
2018-01-11T02:10:26.137Z,0.00
2018-01-11T02:11:26.165Z,0.00
2018-01-11T02:12:26.192Z,0.00
2018-01-11T02:13:26.219Z,0.00
2018-01-11T02:14:26.246Z,0.00
2018-01-11T02:15:26.272Z,0.00
2018-01-11T02:16:26.301Z,0.00
2018-01-11T02:17:26.328Z,0.00
2018-01-11T02:18:26.355Z,0.00
2018-01-11T02:19:26.383Z,0.00
2018-01-11T02:20:26.460Z,0.00
2018-01-11T02:21:26.438Z,0.00
2018-01-11T02:22:26.465Z,0.00
2018-01-11T02:23:26.492Z,0.00
2018-01-11T02:24:26.519Z,0.00
2018-01-11T02:25:26.588Z,0.00
2018-01-11T02:26:26.579Z,0.00
2018-01-11T02:27:26.600Z,0.00
2018-01-11T02:28:26.627Z,0.00
2018-01-11T02:29:26.656Z,0.00
2018-01-11T02:30:26.683Z,0.00
2018-01-11T02:31:26.711Z,0.00
2018-01-11T02:32:26.737Z,0.00
2018-01-11T02:33:26.766Z,0.00
2018-01-11T02:34:26.793Z,0.00
2018-01-11T02:35:26.820Z,0.00
2018-01-11T02:36:26.848Z,0.00
2018-01-11T02:37:26.875Z,0.00
2018-01-11T02:38:26.901Z,0.00
2018-01-11T02:39:26.930Z,0.00
2018-01-11T02:40:26.958Z,0.00
2018-01-11T02:41:27.057Z,0.00
2018-01-11T02:42:27.012Z,0.00
2018-01-11T02:43:27.039Z,0.00
2018-01-11T02:44:27.067Z,0.00
2018-01-11T02:45:27.093Z,0.00
2018-01-11T02:46:27.121Z,0.00
2018-01-11T02:47:27.149Z,0.00
2018-01-11T02:48:27.184Z,0.00
2018-01-11T02:49:27.203Z,0.00
2018-01-11T02:50:27.231Z,0.00
2018-01-11T02:51:27.258Z,0.00
2018-01-11T02:52:27.285Z,0.00
2018-01-11T02:53:27.312Z,0.00
2018-01-11T02:54:27.341Z,0.00
2018-01-11T02:55:27.368Z,0.00
2018-01-11T02:56:27.395Z,0.00
2018-01-11T02:57:27.422Z,0.00
2018-01-11T02:58:27.449Z,0.00
2018-01-11T02:59:27.478Z,0.00
2018-01-11T03:00:27.506Z,0.00
2018-01-11T03:01:27.532Z,0.00
2018-01-11T03:02:27.560Z,0.00
2018-01-11T03:03:27.587Z,0.00
2018-01-11T03:04:27.615Z,0.00
2018-01-11T03:05:27.647Z,0.00
2018-01-11T03:06:27.669Z,0.00
2018-01-11T03:07:27.699Z,0.00
2018-01-11T03:08:27.727Z,0.00
2018-01-11T03:09:27.753Z,0.00
2018-01-11T03:10:27.778Z,0.00
2018-01-11T03:11:27.808Z,0.00
2018-01-11T03:12:27.835Z,0.00
2018-01-11T03:13:27.863Z,0.00
2018-01-11T03:14:27.888Z,0.00
2018-01-11T03:15:27.918Z,0.00
2018-01-11T03:16:27.945Z,0.00
2018-01-11T03:17:27.973Z,0.00
2018-01-11T03:18:28.000Z,0.00
2018-01-11T03:19:28.027Z,0.00
2018-01-11T03:20:28.059Z,0.00
2018-01-11T03:21:28.082Z,0.00
2018-01-11T03:22:28.112Z,0.00
2018-01-11T03:23:28.138Z,0.00
2018-01-11T03:24:28.165Z,0.00
2018-01-11T03:25:28.194Z,0.00
2018-01-11T03:26:28.220Z,0.00
2018-01-11T03:27:28.248Z,0.00
2018-01-11T03:28:28.275Z,0.00
2018-01-11T03:29:28.303Z,0.00
2018-01-11T03:30:28.331Z,0.00
2018-01-11T03:31:28.363Z,0.00
2018-01-11T03:32:28.385Z,0.00
2018-01-11T03:33:28.415Z,0.00
2018-01-11T03:34:28.440Z,0.00
2018-01-11T03:35:28.467Z,0.00
2018-01-11T03:36:28.494Z,0.00
2018-01-11T03:37:28.526Z,0.00
2018-01-11T03:38:28.549Z,0.00
2018-01-11T03:39:28.577Z,0.00
2018-01-11T03:40:28.604Z,0.00
2018-01-11T03:41:28.632Z,0.00
2018-01-11T03:42:28.658Z,0.00
2018-01-11T03:43:28.685Z,0.00
2018-01-11T03:44:28.713Z,0.00
2018-01-11T03:45:28.741Z,0.00
2018-01-11T03:46:28.767Z,0.00
2018-01-11T03:47:28.794Z,0.00
2018-01-11T03:48:28.822Z,0.00
2018-01-11T03:49:28.848Z,0.00
2018-01-11T03:50:28.876Z,0.00
2018-01-11T03:51:28.908Z,0.00
2018-01-11T03:52:28.931Z,0.00
2018-01-11T03:53:28.959Z,0.00
2018-01-11T03:54:28.985Z,0.00
2018-01-11T03:55:29.012Z,0.00
2018-01-11T03:56:29.038Z,0.00
2018-01-11T03:57:29.067Z,0.00
2018-01-11T03:58:29.092Z,0.00
2018-01-11T03:59:29.120Z,0.00
2018-01-11T04:00:29.146Z,0.00
2018-01-11T04:01:29.175Z,0.00
2018-01-11T04:02:29.204Z,0.00
2018-01-11T04:03:29.228Z,0.00
2018-01-11T04:04:29.256Z,0.00
2018-01-11T04:05:29.287Z,0.00
2018-01-11T04:06:29.309Z,0.00
2018-01-11T04:07:29.338Z,0.00
2018-01-11T04:08:29.367Z,0.00
2018-01-11T04:09:29.393Z,0.00
2018-01-11T04:10:29.419Z,0.00
2018-01-11T04:11:29.446Z,0.00
2018-01-11T04:12:29.475Z,0.00
2018-01-11T04:13:29.501Z,0.00
2018-01-11T04:14:29.528Z,0.00
2018-01-11T04:15:29.555Z,0.00
2018-01-11T04:16:29.583Z,0.00
2018-01-11T04:17:29.610Z,0.00
2018-01-11T04:18:29.635Z,0.00
2018-01-11T04:19:29.664Z,0.00
2018-01-11T04:20:29.692Z,0.00
2018-01-11T04:21:29.719Z,0.00
2018-01-11T04:22:29.749Z,0.00
2018-01-11T04:23:29.772Z,0.00
2018-01-11T04:24:29.800Z,0.00
2018-01-11T04:25:29.833Z,0.00
2018-01-11T04:26:29.853Z,0.00
2018-01-11T04:27:29.884Z,0.00
2018-01-11T04:28:29.909Z,0.00
2018-01-11T04:29:29.936Z,0.00
2018-01-11T04:30:29.962Z,0.00
2018-01-11T04:31:29.989Z,0.00
2018-01-11T04:32:30.018Z,0.00
2018-01-11T04:33:30.044Z,0.00
2018-01-11T04:34:30.070Z,0.00
2018-01-11T04:35:30.098Z,0.00
2018-01-11T04:36:30.125Z,0.00
2018-01-11T04:37:30.152Z,0.00
2018-01-11T04:38:30.178Z,0.00
2018-01-11T04:39:30.207Z,0.00
2018-01-11T04:40:30.235Z,0.00
2018-01-11T04:41:30.264Z,0.00
2018-01-11T04:42:30.289Z,0.00
2018-01-11T04:43:30.316Z,0.00
2018-01-11T04:44:30.342Z,0.00
2018-01-11T04:45:30.371Z,0.00
2018-01-11T04:46:30.396Z,0.00
2018-01-11T04:47:30.424Z,0.00
2018-01-11T04:48:30.451Z,0.00
2018-01-11T04:49:30.479Z,0.00
2018-01-11T04:50:30.508Z,0.00
2018-01-11T04:51:30.534Z,0.00
2018-01-11T04:52:30.561Z,0.00
2018-01-11T04:53:30.587Z,0.00
2018-01-11T04:54:30.614Z,0.00
2018-01-11T04:55:30.642Z,0.00
2018-01-11T04:56:30.670Z,0.00
2018-01-11T04:57:30.697Z,0.00
2018-01-11T04:58:30.723Z,0.00
2018-01-11T04:59:30.751Z,0.00
2018-01-11T05:00:30.777Z,0.00
2018-01-11T05:01:30.805Z,0.00
2018-01-11T05:02:30.832Z,0.00
2018-01-11T05:03:30.859Z,0.00
2018-01-11T05:04:30.885Z,0.00
2018-01-11T05:05:30.914Z,0.00
2018-01-11T05:06:30.940Z,0.00
2018-01-11T05:07:30.968Z,0.00
2018-01-11T05:08:30.995Z,0.00
2018-01-11T05:09:31.023Z,0.00
2018-01-11T05:10:31.049Z,0.00
2018-01-11T05:11:31.081Z,0.00
2018-01-11T05:12:31.104Z,0.00
2018-01-11T05:13:31.134Z,0.00
2018-01-11T05:14:31.158Z,0.00
2018-01-11T05:15:31.186Z,0.00
2018-01-11T05:16:31.215Z,0.00
2018-01-11T05:17:31.239Z,0.00
2018-01-11T05:18:31.265Z,0.00
2018-01-11T05:19:31.297Z,0.00
2018-01-11T05:20:31.325Z,0.00
2018-01-11T05:21:31.348Z,0.00
2018-01-11T05:22:31.376Z,0.00
2018-01-11T05:23:31.402Z,0.00
2018-01-11T05:24:31.431Z,0.00
2018-01-11T05:25:31.458Z,0.00
2018-01-11T05:26:31.485Z,0.00
2018-01-11T05:27:31.558Z,0.00
2018-01-11T05:28:31.539Z,0.00
2018-01-11T05:29:31.565Z,0.00
2018-01-11T05:30:31.592Z,0.00
2018-01-11T05:31:31.619Z,0.00
2018-01-11T05:32:31.650Z,0.00
2018-01-11T05:33:31.673Z,0.00
2018-01-11T05:34:31.702Z,0.00
2018-01-11T05:35:31.731Z,0.00
2018-01-11T05:36:31.756Z,0.00
2018-01-11T05:37:31.783Z,0.00
2018-01-11T05:38:31.810Z,0.00
2018-01-11T05:39:31.837Z,0.00
2018-01-11T05:40:31.866Z,0.00
2018-01-11T05:41:31.891Z,0.00
2018-01-11T05:42:31.917Z,0.00
2018-01-11T05:43:31.946Z,0.00
2018-01-11T05:44:31.974Z,0.00
2018-01-11T05:45:32.001Z,0.00
2018-01-11T05:46:32.026Z,0.00
2018-01-11T05:47:32.102Z,0.00
2018-01-11T05:48:32.082Z,0.00
2018-01-11T05:49:32.109Z,0.00
2018-01-11T05:50:32.136Z,0.00
2018-01-11T05:51:32.167Z,0.00
2018-01-11T05:52:32.190Z,0.00
2018-01-11T05:53:32.218Z,0.00
2018-01-11T05:54:32.244Z,0.00
2018-01-11T05:55:32.272Z,0.00
2018-01-11T05:56:32.300Z,0.00
2018-01-11T05:57:32.327Z,0.00
2018-01-11T05:58:32.353Z,0.00
2018-01-11T05:59:32.381Z,0.00
2018-01-11T06:00:32.407Z,0.00
2018-01-11T06:01:32.433Z,0.00
2018-01-11T06:02:32.461Z,0.00
2018-01-11T06:03:32.489Z,0.00
2018-01-11T06:04:32.515Z,0.00
2018-01-11T06:05:32.543Z,0.00
2018-01-11T06:06:32.569Z,0.00
2018-01-11T06:07:32.597Z,0.00
2018-01-11T06:08:32.624Z,0.00
2018-01-11T06:09:32.651Z,0.00
2018-01-11T06:10:32.677Z,0.00
2018-01-11T06:11:32.705Z,0.00
2018-01-11T06:12:32.732Z,0.00
2018-01-11T06:13:32.760Z,0.00
2018-01-11T06:14:32.790Z,0.00
2018-01-11T06:15:32.811Z,0.00
2018-01-11T06:16:32.840Z,0.00
2018-01-11T06:17:32.868Z,0.00
2018-01-11T06:18:32.894Z,0.00
2018-01-11T06:19:32.921Z,0.00
2018-01-11T06:20:32.948Z,0.00
2018-01-11T06:21:32.975Z,0.00
2018-01-11T06:22:33.002Z,0.00
2018-01-11T06:23:33.029Z,0.00
2018-01-11T06:24:33.057Z,0.00
2018-01-11T06:25:33.082Z,0.00
2018-01-11T06:26:33.108Z,0.00
2018-01-11T06:27:33.139Z,0.00
2018-01-11T06:28:33.163Z,0.00
2018-01-11T06:29:33.191Z,0.00
2018-01-11T06:30:33.216Z,0.00
2018-01-11T06:31:33.245Z,0.00
2018-01-11T06:32:33.271Z,0.00
2018-01-11T06:33:33.299Z,0.00
2018-01-11T06:34:33.324Z,0.00
2018-01-11T06:35:33.351Z,0.00
2018-01-11T06:36:33.379Z,0.00
2018-01-11T06:37:33.406Z,0.00
2018-01-11T06:38:33.432Z,0.00
2018-01-11T06:39:33.459Z,0.00
2018-01-11T06:40:33.486Z,0.00
2018-01-11T06:41:33.529Z,0.00
2018-01-11T06:42:33.540Z,0.00
2018-01-11T06:43:33.566Z,0.00
2018-01-11T06:44:33.594Z,0.00
2018-01-11T06:45:33.621Z,0.00
2018-01-11T06:46:33.647Z,0.00
2018-01-11T06:47:33.674Z,0.00
2018-01-11T06:48:33.701Z,0.00
2018-01-11T06:49:33.730Z,0.00
2018-01-11T06:50:33.755Z,0.00
2018-01-11T06:51:33.805Z,0.00
2018-01-11T06:52:33.827Z,0.00
2018-01-11T06:53:33.860Z,0.00
2018-01-11T06:54:33.883Z,0.00
2018-01-11T06:55:33.915Z,0.00
2018-01-11T06:56:33.934Z,0.00
2018-01-11T06:57:33.947Z,0.00
2018-01-11T06:58:33.992Z,0.00
2018-01-11T06:59:34.021Z,0.00
2018-01-11T07:00:34.048Z,0.00
2018-01-11T07:01:34.052Z,0.00
2018-01-11T07:02:34.101Z,0.00
2018-01-11T07:03:34.133Z,0.00
2018-01-11T07:04:34.160Z,0.00
2018-01-11T07:05:34.179Z,0.00
2018-01-11T07:06:34.213Z,0.00
2018-01-11T07:07:34.232Z,0.00
2018-01-11T07:08:34.259Z,0.00
2018-01-11T07:09:34.268Z,0.00
2018-01-11T07:10:34.321Z,0.00
2018-01-11T07:11:34.346Z,0.00
2018-01-11T07:12:34.348Z,0.00
2018-01-11T07:13:34.398Z,0.00
2018-01-11T07:14:34.422Z,0.00
2018-01-11T07:15:34.447Z,0.00
2018-01-11T07:16:34.456Z,0.00
2018-01-11T07:17:34.510Z,0.00
2018-01-11T07:18:34.531Z,5.63
2018-01-11T07:19:34.559Z,5.63
2018-01-11T07:20:34.589Z,5.63
2018-01-11T07:21:34.610Z,5.63
2018-01-11T07:22:34.634Z,5.63
2018-01-11T07:23:34.645Z,5.63
2018-01-11T07:24:34.699Z,5.63
2018-01-11T07:25:34.724Z,5.63
2018-01-11T07:26:34.752Z,5.63
2018-01-11T07:27:34.756Z,5.63
2018-01-11T07:28:34.831Z,11.25
2018-01-11T07:29:34.888Z,11.25
2018-01-11T07:30:34.855Z,11.25
2018-01-11T07:31:34.883Z,11.25
2018-01-11T07:32:34.889Z,16.88
2018-01-11T07:33:34.943Z,16.88
2018-01-11T07:34:34.963Z,16.88
2018-01-11T07:35:34.997Z,16.88
2018-01-11T07:36:34.997Z,22.50
2018-01-11T07:37:35.050Z,22.50
2018-01-11T07:38:35.068Z,22.50
2018-01-11T07:39:35.103Z,28.13
2018-01-11T07:40:35.123Z,28.13
2018-01-11T07:41:35.153Z,28.13
2018-01-11T07:42:35.177Z,33.75
2018-01-11T07:43:35.206Z,33.75
2018-01-11T07:44:35.237Z,33.75
2018-01-11T07:45:35.242Z,39.38
2018-01-11T07:46:35.294Z,39.38
2018-01-11T07:47:35.313Z,39.38
2018-01-11T07:48:35.340Z,45.00
2018-01-11T07:49:35.380Z,45.00
2018-01-11T07:50:35.400Z,50.63
2018-01-11T07:51:35.426Z,50.63
2018-01-11T07:52:35.453Z,50.63
2018-01-11T07:53:35.483Z,56.25
2018-01-11T07:54:35.512Z,56.25
2018-01-11T07:55:35.544Z,56.25
2018-01-11T07:56:35.565Z,73.13
2018-01-11T07:57:35.571Z,95.63
2018-01-11T07:58:35.599Z,101.25
2018-01-11T07:59:35.626Z,101.25
2018-01-11T08:00:35.654Z,90.00
2018-01-11T08:01:35.682Z,78.75
2018-01-11T08:02:35.709Z,78.75
2018-01-11T08:03:35.738Z,73.13
2018-01-11T08:04:35.765Z,67.50
2018-01-11T08:05:35.796Z,67.50
2018-01-11T08:06:35.822Z,67.50
2018-01-11T08:07:35.849Z,73.13
2018-01-11T08:08:35.878Z,78.75
2018-01-11T08:09:35.906Z,78.75
2018-01-11T08:10:35.935Z,78.75
2018-01-11T08:11:35.962Z,78.75
2018-01-11T08:12:35.991Z,78.75
2018-01-11T08:13:36.020Z,84.38
2018-01-11T08:14:36.047Z,84.38
2018-01-11T08:15:36.075Z,84.38
2018-01-11T08:16:36.104Z,84.38
2018-01-11T08:17:36.132Z,84.38
2018-01-11T08:18:36.159Z,84.38
2018-01-11T08:19:36.188Z,90.00
2018-01-11T08:20:36.216Z,90.00
2018-01-11T08:21:36.245Z,95.63
2018-01-11T08:22:36.272Z,101.25
2018-01-11T08:23:36.301Z,101.25
2018-01-11T08:24:36.329Z,106.88
2018-01-11T08:25:36.358Z,112.50
2018-01-11T08:26:36.400Z,118.13
2018-01-11T08:27:36.419Z,123.75
2018-01-11T08:28:36.442Z,135.00
2018-01-11T08:29:36.473Z,146.25
2018-01-11T08:30:36.498Z,157.50
2018-01-11T08:31:36.526Z,168.75
2018-01-11T08:32:36.556Z,180.00
2018-01-11T08:33:36.584Z,196.88
2018-01-11T08:34:36.612Z,202.50
2018-01-11T08:35:36.640Z,225.00
2018-01-11T08:36:36.669Z,230.63
2018-01-11T08:37:36.698Z,230.63
2018-01-11T08:38:36.729Z,236.25
2018-01-11T08:39:36.755Z,264.38
2018-01-11T08:40:36.784Z,292.50
2018-01-11T08:41:36.835Z,331.88
2018-01-11T08:42:36.862Z,388.13
2018-01-11T08:43:36.870Z,343.13
2018-01-11T08:44:36.898Z,292.50
2018-01-11T08:45:36.929Z,292.50
2018-01-11T08:46:36.959Z,309.38
2018-01-11T08:47:36.987Z,298.13
2018-01-11T08:48:37.017Z,360.00
2018-01-11T08:49:37.047Z,438.75
2018-01-11T08:50:37.075Z,433.13
2018-01-11T08:51:37.104Z,585.00
2018-01-11T08:52:37.135Z,669.38
2018-01-11T08:53:37.179Z,708.75
2018-01-11T08:54:37.195Z,618.75
2018-01-11T08:55:37.226Z,556.88
2018-01-11T08:56:37.256Z,348.75
2018-01-11T08:57:37.287Z,331.88
2018-01-11T08:58:37.318Z,303.75
2018-01-11T08:59:37.351Z,298.13
2018-01-11T09:00:37.381Z,292.50
2018-01-11T09:01:37.411Z,298.13
2018-01-11T09:02:37.442Z,309.38
2018-01-11T09:03:37.473Z,331.88
2018-01-11T09:04:37.509Z,354.38
2018-01-11T09:05:37.536Z,371.25
2018-01-11T09:06:37.566Z,371.25
2018-01-11T09:07:37.599Z,399.38
2018-01-11T09:08:37.630Z,438.75
2018-01-11T09:09:37.661Z,393.75
2018-01-11T09:10:37.693Z,399.38
2018-01-11T09:11:37.724Z,416.25
2018-01-11T09:12:37.757Z,545.63
2018-01-11T09:13:37.788Z,759.38
2018-01-11T09:14:37.826Z,933.75
2018-01-11T09:15:37.851Z,961.88
2018-01-11T09:16:37.883Z,922.50
2018-01-11T09:17:37.917Z,967.50
2018-01-11T09:18:37.947Z,1006.88
2018-01-11T09:19:37.979Z,911.25
2018-01-11T09:20:38.012Z,646.88
2018-01-11T09:21:38.046Z,495.00
2018-01-11T09:22:38.076Z,371.25
2018-01-11T09:23:38.110Z,343.13
2018-01-11T09:24:38.146Z,326.25
2018-01-11T09:25:38.177Z,331.88
2018-01-11T09:26:38.211Z,326.25
2018-01-11T09:27:38.245Z,337.50
2018-01-11T09:28:38.278Z,326.25
2018-01-11T09:29:38.314Z,315.00
2018-01-11T09:30:38.345Z,286.88
2018-01-11T09:31:38.378Z,264.38
2018-01-11T09:32:38.413Z,253.13
2018-01-11T09:33:38.446Z,236.25
2018-01-11T09:34:38.478Z,225.00
2018-01-11T09:35:38.511Z,213.75
2018-01-11T09:36:38.545Z,208.13
2018-01-11T09:37:38.578Z,213.75
2018-01-11T09:38:38.612Z,219.38
2018-01-11T09:39:38.643Z,225.00
2018-01-11T09:40:38.674Z,230.63
2018-01-11T09:41:38.710Z,230.63
2018-01-11T09:42:38.739Z,230.63
2018-01-11T09:43:38.772Z,225.00
2018-01-11T09:44:38.805Z,213.75
2018-01-11T09:45:38.837Z,202.50
2018-01-11T09:46:38.867Z,196.88
2018-01-11T09:47:38.899Z,191.25
2018-01-11T09:48:38.932Z,180.00
2018-01-11T09:49:38.964Z,174.38
2018-01-11T09:50:38.999Z,174.38
2018-01-11T09:51:39.028Z,174.38
2018-01-11T09:52:39.059Z,174.38
2018-01-11T09:53:39.090Z,174.38
2018-01-11T09:54:39.121Z,174.38
2018-01-11T09:55:39.174Z,174.38
2018-01-11T09:56:39.185Z,185.63
2018-01-11T09:57:39.218Z,196.88
2018-01-11T09:58:39.247Z,196.88
2018-01-11T09:59:39.280Z,202.50
2018-01-11T10:00:39.314Z,213.75
2018-01-11T10:01:39.340Z,213.75
2018-01-11T10:02:39.371Z,213.75
2018-01-11T10:03:39.408Z,213.75
2018-01-11T10:04:39.434Z,202.50
2018-01-11T10:05:39.466Z,196.88
2018-01-11T10:06:39.496Z,191.25
2018-01-11T10:07:39.528Z,185.63
2018-01-11T10:08:39.559Z,180.00
2018-01-11T10:09:39.591Z,174.38
2018-01-11T10:10:39.619Z,174.38
2018-01-11T10:11:39.652Z,168.75
2018-01-11T10:12:39.685Z,168.75
2018-01-11T10:13:39.714Z,168.75
2018-01-11T10:14:39.745Z,163.13
2018-01-11T10:15:39.777Z,157.50
2018-01-11T10:16:39.806Z,151.88
2018-01-11T10:17:39.839Z,140.63
2018-01-11T10:18:39.869Z,129.38
2018-01-11T10:19:39.900Z,129.38
2018-01-11T10:20:39.931Z,123.75
2018-01-11T10:21:39.962Z,118.13
2018-01-11T10:22:39.992Z,118.13
2018-01-11T10:23:40.025Z,118.13
2018-01-11T10:24:40.055Z,112.50
2018-01-11T10:25:40.086Z,112.50
2018-01-11T10:26:40.117Z,106.88
2018-01-11T10:27:40.147Z,106.88
2018-01-11T10:28:40.177Z,106.88
2018-01-11T10:29:40.210Z,101.25
2018-01-11T10:30:40.240Z,101.25
2018-01-11T10:31:40.271Z,101.25
2018-01-11T10:32:40.300Z,95.63
2018-01-11T10:33:40.333Z,95.63
2018-01-11T10:34:40.363Z,95.63
2018-01-11T10:35:40.393Z,95.63
2018-01-11T10:36:40.424Z,95.63
2018-01-11T10:37:40.455Z,95.63
2018-01-11T10:38:40.487Z,101.25
2018-01-11T10:39:40.517Z,101.25
2018-01-11T10:40:40.547Z,106.88
2018-01-11T10:41:40.577Z,112.50
2018-01-11T10:42:40.609Z,112.50
2018-01-11T10:43:40.639Z,112.50
2018-01-11T10:44:40.671Z,112.50
2018-01-11T10:45:40.701Z,106.88
2018-01-11T10:46:40.730Z,106.88
2018-01-11T10:47:40.804Z,95.63
2018-01-11T10:48:40.791Z,90.00
2018-01-11T10:49:40.822Z,84.38
2018-01-11T10:50:40.852Z,78.75
2018-01-11T10:51:40.884Z,78.75
2018-01-11T10:52:40.915Z,78.75
2018-01-11T10:53:40.947Z,78.75
2018-01-11T10:54:40.975Z,84.38
2018-01-11T10:55:41.006Z,95.63
2018-01-11T10:56:41.036Z,90.00
2018-01-11T10:57:41.066Z,95.63
2018-01-11T10:58:41.097Z,101.25
2018-01-11T10:59:41.129Z,101.25
2018-01-11T11:00:41.158Z,106.88
2018-01-11T11:01:41.188Z,112.50
2018-01-11T11:02:41.219Z,112.50
2018-01-11T11:03:41.250Z,118.13
2018-01-11T11:04:41.281Z,118.13
2018-01-11T11:05:41.312Z,129.38
2018-01-11T11:06:41.343Z,123.75
2018-01-11T11:07:41.372Z,123.75
2018-01-11T11:08:41.402Z,123.75
2018-01-11T11:09:41.433Z,123.75
2018-01-11T11:10:41.462Z,118.13
2018-01-11T11:11:41.492Z,118.13
2018-01-11T11:12:41.524Z,112.50
2018-01-11T11:13:41.556Z,106.88
2018-01-11T11:14:41.585Z,106.88
2018-01-11T11:15:41.615Z,106.88
2018-01-11T11:16:41.646Z,106.88
2018-01-11T11:17:41.678Z,101.25
2018-01-11T11:18:41.707Z,101.25
2018-01-11T11:19:41.739Z,95.63
2018-01-11T11:20:41.768Z,95.63
2018-01-11T11:21:41.798Z,90.00
2018-01-11T11:22:41.829Z,84.38
2018-01-11T11:23:41.859Z,84.38
2018-01-11T11:24:41.891Z,84.38
2018-01-11T11:25:41.926Z,84.38
2018-01-11T11:26:41.951Z,90.00
2018-01-11T11:27:41.982Z,90.00
2018-01-11T11:28:42.014Z,90.00
2018-01-11T11:29:42.080Z,90.00
2018-01-11T11:30:42.072Z,90.00
2018-01-11T11:31:42.104Z,90.00
2018-01-11T11:32:42.135Z,90.00
2018-01-11T11:33:42.166Z,84.38
2018-01-11T11:34:42.196Z,84.38
2018-01-11T11:35:42.226Z,84.38
2018-01-11T11:36:42.257Z,78.75
2018-01-11T11:37:42.290Z,78.75
2018-01-11T11:38:42.317Z,84.38
2018-01-11T11:39:42.349Z,84.38
2018-01-11T11:40:42.380Z,84.38
2018-01-11T11:41:42.410Z,84.38
2018-01-11T11:42:42.440Z,90.00
2018-01-11T11:43:42.472Z,90.00
2018-01-11T11:44:42.502Z,90.00
2018-01-11T11:45:42.533Z,90.00
2018-01-11T11:46:42.563Z,90.00
2018-01-11T11:47:42.594Z,95.63
2018-01-11T11:48:42.662Z,95.63
2018-01-11T11:49:42.658Z,95.63
2018-01-11T11:50:42.686Z,101.25
2018-01-11T11:51:42.716Z,101.25
2018-01-11T11:52:42.748Z,101.25
2018-01-11T11:53:42.778Z,106.88
2018-01-11T11:54:42.809Z,106.88
2018-01-11T11:55:42.839Z,106.88
2018-01-11T11:56:42.875Z,106.88
2018-01-11T11:57:42.902Z,101.25
2018-01-11T11:58:42.931Z,101.25
2018-01-11T11:59:42.963Z,101.25
2018-01-11T12:00:42.993Z,101.25
2018-01-11T12:01:43.025Z,95.63
2018-01-11T12:02:43.055Z,95.63
2018-01-11T12:03:43.086Z,95.63
2018-01-11T12:04:43.117Z,90.00
2018-01-11T12:05:43.148Z,90.00
2018-01-11T12:06:43.178Z,90.00
2018-01-11T12:07:43.208Z,90.00
2018-01-11T12:08:43.241Z,90.00
2018-01-11T12:09:43.273Z,90.00
2018-01-11T12:10:43.300Z,90.00
2018-01-11T12:11:43.334Z,90.00
2018-01-11T12:12:43.365Z,95.63
2018-01-11T12:13:43.394Z,95.63
2018-01-11T12:14:43.425Z,101.25
2018-01-11T12:15:43.455Z,101.25
2018-01-11T12:16:43.487Z,106.88
2018-01-11T12:17:43.516Z,106.88
2018-01-11T12:18:43.549Z,106.88
2018-01-11T12:19:43.576Z,112.50
2018-01-11T12:20:43.609Z,112.50
2018-01-11T12:21:43.639Z,112.50
2018-01-11T12:22:43.668Z,112.50
2018-01-11T12:23:43.699Z,118.13
2018-01-11T12:24:43.729Z,118.13
2018-01-11T12:25:43.761Z,118.13
2018-01-11T12:26:43.791Z,118.13
2018-01-11T12:27:43.821Z,118.13
2018-01-11T12:28:43.851Z,118.13
2018-01-11T12:29:43.882Z,118.13
2018-01-11T12:30:43.911Z,118.13
2018-01-11T12:31:43.943Z,118.13
2018-01-11T12:32:43.972Z,118.13
2018-01-11T12:33:44.002Z,118.13
2018-01-11T12:34:44.035Z,112.50
2018-01-11T12:35:44.063Z,112.50
2018-01-11T12:36:44.092Z,112.50
2018-01-11T12:37:44.124Z,112.50
2018-01-11T12:38:44.153Z,112.50
2018-01-11T12:39:44.184Z,112.50
2018-01-11T12:40:44.213Z,112.50
2018-01-11T12:41:44.245Z,106.88
2018-01-11T12:42:44.274Z,106.88
2018-01-11T12:43:44.304Z,101.25
2018-01-11T12:44:44.335Z,95.63
2018-01-11T12:45:44.364Z,95.63
2018-01-11T12:46:44.395Z,90.00
2018-01-11T12:47:44.425Z,90.00
2018-01-11T12:48:44.456Z,90.00
2018-01-11T12:49:44.486Z,90.00
2018-01-11T12:50:44.519Z,95.63
2018-01-11T12:51:44.544Z,95.63
2018-01-11T12:52:44.574Z,101.25
2018-01-11T12:53:44.607Z,101.25
2018-01-11T12:54:44.633Z,101.25
2018-01-11T12:55:44.665Z,101.25
2018-01-11T12:56:44.695Z,101.25
2018-01-11T12:57:44.730Z,101.25
2018-01-11T12:58:44.754Z,95.63
2018-01-11T12:59:44.786Z,95.63
2018-01-11T13:00:44.817Z,90.00